Terminal Aerodrome Forecast
Issued by NWS Sioux Falls, SD

Home | Current Version | Previous Version | Graphics & Text | Print | Product List | Glossary On
Versions: 1 2 3 4 5 6 7 8 9 10 11 12 13 14 15 16 17 18 19 20 21 22 23 24 25 26 27 28
000
FTUS43 KFSD 300904 AAA
TAFFSD
TAF AMD
KFSD 300904Z 3009/3106 34008KT P6SM OVC008
     FM301500 34008KT P6SM OVC015
     FM301600 35004KT P6SM BKN022
     FM301800 VRB04KT P6SM SCT030
     FM310000 14008KT P6SM SCT100=

USA.gov is the U.S. government's official web portal to all federal, state and local government web resources and services.